sensor_id;sensor_type;location;lat;lon;timestamp;P1;durP1;ratioP1;P2;durP2;ratioP2
77798;SDS011;66989;50.426;15.352;2023-02-28T00:00:20;8.60;;;4.05;;
77798;SDS011;66989;50.426;15.352;2023-02-28T00:02:46;8.05;;;4.60;;
77798;SDS011;66989;50.426;15.352;2023-02-28T00:05:13;7.90;;;3.90;;
77798;SDS011;66989;50.426;15.352;2023-02-28T00:07:40;9.07;;;4.93;;
77798;SDS011;66989;50.426;15.352;2023-02-28T00:10:08;9.20;;;4.63;;
77798;SDS011;66989;50.426;15.352;2023-02-28T00:12:35;9.23;;;5.68;;
77798;SDS011;66989;50.426;15.352;2023-02-28T00:15:02;7.13;;;4.35;;
77798;SDS011;66989;50.426;15.352;2023-02-28T00:17:30;8.85;;;5.10;;
77798;SDS011;66989;50.426;15.352;2023-02-28T00:19:56;9.18;;;5.40;;
77798;SDS011;66989;50.426;15.352;2023-02-28T00:22:22;8.32;;;4.45;;
77798;SDS011;66989;50.426;15.352;2023-02-28T00:24:48;10.38;;;5.22;;
77798;SDS011;66989;50.426;15.352;2023-02-28T00:27:14;9.85;;;5.05;;
77798;SDS011;66989;50.426;15.352;2023-02-28T00:29:39;6.18;;;2.47;;
77798;SDS011;66989;50.426;15.352;2023-02-28T00:32:05;10.90;;;5.38;;
77798;SDS011;66989;50.426;15.352;2023-02-28T00:34:31;9.50;;;5.55;;
77798;SDS011;66989;50.426;15.352;2023-02-28T00:37:02;9.45;;;3.40;;
77798;SDS011;66989;50.426;15.352;2023-02-28T00:39:31;9.00;;;4.70;;
77798;SDS011;66989;50.426;15.352;2023-02-28T00:44:23;9.03;;;5.17;;
77798;SDS011;66989;50.426;15.352;2023-02-28T00:46:48;10.43;;;5.43;;
77798;SDS011;66989;50.426;15.352;2023-02-28T00:49:14;7.55;;;3.65;;
77798;SDS011;66989;50.426;15.352;2023-02-28T00:51:39;6.55;;;4.63;;
77798;SDS011;66989;50.426;15.352;2023-02-28T00:54:04;7.23;;;4.60;;
77798;SDS011;66989;50.426;15.352;2023-02-28T00:56:30;7.83;;;3.50;;
77798;SDS011;66989;50.426;15.352;2023-02-28T00:58:55;8.20;;;5.10;;
77798;SDS011;66989;50.426;15.352;2023-02-28T01:01:22;9.47;;;5.37;;
77798;SDS011;66989;50.426;15.352;2023-02-28T01:03:47;8.32;;;5.20;;
77798;SDS011;66989;50.426;15.352;2023-02-28T01:06:13;8.87;;;5.03;;
77798;SDS011;66989;50.426;15.352;2023-02-28T01:08:38;8.23;;;4.78;;
77798;SDS011;66989;50.426;15.352;2023-02-28T01:11:07;7.57;;;3.37;;
77798;SDS011;66989;50.426;15.352;2023-02-28T01:13:33;8.75;;;3.28;;
77798;SDS011;66989;50.426;15.352;2023-02-28T01:15:59;11.53;;;4.67;;
77798;SDS011;66989;50.426;15.352;2023-02-28T01:18:24;13.47;;;5.13;;
77798;SDS011;66989;50.426;15.352;2023-02-28T01:20:50;9.48;;;5.50;;
77798;SDS011;66989;50.426;15.352;2023-02-28T01:23:17;12.43;;;5.40;;
77798;SDS011;66989;50.426;15.352;2023-02-28T01:25:43;9.65;;;4.55;;
77798;SDS011;66989;50.426;15.352;2023-02-28T01:28:09;12.20;;;5.33;;
77798;SDS011;66989;50.426;15.352;2023-02-28T01:30:34;9.57;;;4.63;;
77798;SDS011;66989;50.426;15.352;2023-02-28T01:33:00;8.82;;;5.28;;
77798;SDS011;66989;50.426;15.352;2023-02-28T01:35:25;7.43;;;4.30;;
77798;SDS011;66989;50.426;15.352;2023-02-28T01:37:50;10.02;;;4.18;;
77798;SDS011;66989;50.426;15.352;2023-02-28T01:40:16;8.20;;;4.80;;
77798;SDS011;66989;50.426;15.352;2023-02-28T01:42:41;11.02;;;4.65;;
77798;SDS011;66989;50.426;15.352;2023-02-28T01:45:23;11.68;;;5.38;;
77798;SDS011;66989;50.426;15.352;2023-02-28T01:47:52;8.38;;;3.85;;
77798;SDS011;66989;50.426;15.352;2023-02-28T01:50:23;8.40;;;4.63;;
77798;SDS011;66989;50.426;15.352;2023-02-28T01:52:51;11.98;;;5.13;;
77798;SDS011;66989;50.426;15.352;2023-02-28T01:55:21;14.85;;;5.22;;
77798;SDS011;66989;50.426;15.352;2023-02-28T01:57:50;9.23;;;5.53;;
77798;SDS011;66989;50.426;15.352;2023-02-28T02:00:20;6.90;;;4.38;;
77798;SDS011;66989;50.426;15.352;2023-02-28T02:02:49;8.93;;;4.28;;
77798;SDS011;66989;50.426;15.352;2023-02-28T02:05:20;9.68;;;5.00;;
77798;SDS011;66989;50.426;15.352;2023-02-28T02:07:49;10.55;;;4.85;;
77798;SDS011;66989;50.426;15.352;2023-02-28T02:10:18;12.38;;;5.35;;
77798;SDS011;66989;50.426;15.352;2023-02-28T02:15:30;9.15;;;4.53;;
77798;SDS011;66989;50.426;15.352;2023-02-28T02:18:01;10.93;;;6.25;;
77798;SDS011;66989;50.426;15.352;2023-02-28T02:26:09;10.07;;;5.60;;
77798;SDS011;66989;50.426;15.352;2023-02-28T02:31:54;8.48;;;3.90;;
77798;SDS011;66989;50.426;15.352;2023-02-28T02:37:20;6.95;;;4.60;;
77798;SDS011;66989;50.426;15.352;2023-02-28T02:40:04;7.20;;;4.93;;
77798;SDS011;66989;50.426;15.352;2023-02-28T02:42:45;7.93;;;4.38;;
77798;SDS011;66989;50.426;15.352;2023-02-28T02:47:41;9.37;;;4.50;;
77798;SDS011;66989;50.426;15.352;2023-02-28T02:50:11;8.57;;;4.80;;
77798;SDS011;66989;50.426;15.352;2023-02-28T02:52:42;8.82;;;5.00;;
77798;SDS011;66989;50.426;15.352;2023-02-28T02:55:11;8.18;;;3.28;;
77798;SDS011;66989;50.426;15.352;2023-02-28T02:57:46;8.00;;;4.28;;
77798;SDS011;66989;50.426;15.352;2023-02-28T03:00:16;8.27;;;6.15;;
77798;SDS011;66989;50.426;15.352;2023-02-28T03:02:45;9.43;;;5.20;;
77798;SDS011;66989;50.426;15.352;2023-02-28T03:05:35;9.40;;;4.47;;
77798;SDS011;66989;50.426;15.352;2023-02-28T03:08:04;8.45;;;5.00;;
77798;SDS011;66989;50.426;15.352;2023-02-28T03:10:38;7.90;;;4.13;;
77798;SDS011;66989;50.426;15.352;2023-02-28T03:21:27;9.70;;;5.55;;
77798;SDS011;66989;50.426;15.352;2023-02-28T03:24:18;7.55;;;4.07;;
77798;SDS011;66989;50.426;15.352;2023-02-28T03:26:55;10.13;;;5.32;;
77798;SDS011;66989;50.426;15.352;2023-02-28T03:29:33;8.23;;;4.53;;
77798;SDS011;66989;50.426;15.352;2023-02-28T03:32:25;10.18;;;5.13;;
77798;SDS011;66989;50.426;15.352;2023-02-28T03:35:02;8.73;;;4.00;;
77798;SDS011;66989;50.426;15.352;2023-02-28T03:37:46;12.73;;;5.32;;
77798;SDS011;66989;50.426;15.352;2023-02-28T03:40:16;12.57;;;5.72;;
77798;SDS011;66989;50.426;15.352;2023-02-28T03:42:45;8.52;;;4.45;;
77798;SDS011;66989;50.426;15.352;2023-02-28T03:45:21;10.60;;;5.07;;
77798;SDS011;66989;50.426;15.352;2023-02-28T03:50:27;9.90;;;3.53;;
77798;SDS011;66989;50.426;15.352;2023-02-28T03:53:01;10.75;;;5.75;;
77798;SDS011;66989;50.426;15.352;2023-02-28T03:55:39;8.57;;;5.22;;
77798;SDS011;66989;50.426;15.352;2023-02-28T03:58:24;8.90;;;5.28;;
77798;SDS011;66989;50.426;15.352;2023-02-28T04:01:03;9.50;;;5.55;;
77798;SDS011;66989;50.426;15.352;2023-02-28T04:03:34;10.40;;;5.32;;
77798;SDS011;66989;50.426;15.352;2023-02-28T04:06:01;9.85;;;4.95;;
77798;SDS011;66989;50.426;15.352;2023-02-28T04:08:27;10.60;;;4.93;;
77798;SDS011;66989;50.426;15.352;2023-02-28T04:10:54;9.43;;;5.10;;
77798;SDS011;66989;50.426;15.352;2023-02-28T04:13:25;9.25;;;5.05;;
77798;SDS011;66989;50.426;15.352;2023-02-28T04:15:50;9.40;;;6.23;;
77798;SDS011;66989;50.426;15.352;2023-02-28T04:18:16;10.87;;;4.97;;
77798;SDS011;66989;50.426;15.352;2023-02-28T04:20:41;7.70;;;4.90;;
77798;SDS011;66989;50.426;15.352;2023-02-28T04:23:06;9.97;;;5.37;;
77798;SDS011;66989;50.426;15.352;2023-02-28T04:25:32;8.87;;;5.30;;
77798;SDS011;66989;50.426;15.352;2023-02-28T04:27:57;12.13;;;6.73;;
77798;SDS011;66989;50.426;15.352;2023-02-28T04:30:22;12.47;;;5.77;;
77798;SDS011;66989;50.426;15.352;2023-02-28T04:32:48;12.23;;;6.40;;
77798;SDS011;66989;50.426;15.352;2023-02-28T04:35:13;9.48;;;5.20;;
77798;SDS011;66989;50.426;15.352;2023-02-28T04:37:38;10.07;;;5.40;;
77798;SDS011;66989;50.426;15.352;2023-02-28T04:40:04;8.43;;;4.60;;
77798;SDS011;66989;50.426;15.352;2023-02-28T04:42:30;12.85;;;5.53;;
77798;SDS011;66989;50.426;15.352;2023-02-28T04:45:00;9.75;;;5.00;;
77798;SDS011;66989;50.426;15.352;2023-02-28T04:47:29;11.82;;;4.45;;
77798;SDS011;66989;50.426;15.352;2023-02-28T04:49:55;9.15;;;5.05;;
77798;SDS011;66989;50.426;15.352;2023-02-28T04:52:20;11.30;;;6.47;;
77798;SDS011;66989;50.426;15.352;2023-02-28T04:54:45;10.43;;;5.90;;
77798;SDS011;66989;50.426;15.352;2023-02-28T04:57:11;8.57;;;4.57;;
77798;SDS011;66989;50.426;15.352;2023-02-28T04:59:36;8.95;;;4.30;;
77798;SDS011;66989;50.426;15.352;2023-02-28T05:02:03;8.73;;;4.75;;
77798;SDS011;66989;50.426;15.352;2023-02-28T05:04:34;8.35;;;5.45;;
77798;SDS011;66989;50.426;15.352;2023-02-28T05:07:01;11.50;;;6.53;;
77798;SDS011;66989;50.426;15.352;2023-02-28T05:09:27;11.30;;;6.53;;
77798;SDS011;66989;50.426;15.352;2023-02-28T05:11:53;12.73;;;5.50;;
77798;SDS011;66989;50.426;15.352;2023-02-28T05:14:18;6.68;;;4.60;;
77798;SDS011;66989;50.426;15.352;2023-02-28T05:16:44;12.30;;;6.13;;
77798;SDS011;66989;50.426;15.352;2023-02-28T05:19:09;9.68;;;5.55;;
77798;SDS011;66989;50.426;15.352;2023-02-28T05:21:37;8.57;;;4.55;;
77798;SDS011;66989;50.426;15.352;2023-02-28T05:24:07;9.57;;;5.18;;
77798;SDS011;66989;50.426;15.352;2023-02-28T05:26:36;7.20;;;4.78;;
77798;SDS011;66989;50.426;15.352;2023-02-28T05:29:03;10.95;;;3.28;;
77798;SDS011;66989;50.426;15.352;2023-02-28T05:31:28;7.43;;;4.30;;
77798;SDS011;66989;50.426;15.352;2023-02-28T05:33:53;7.22;;;4.07;;
77798;SDS011;66989;50.426;15.352;2023-02-28T05:36:21;9.25;;;5.22;;
77798;SDS011;66989;50.426;15.352;2023-02-28T05:38:47;9.90;;;5.45;;
77798;SDS011;66989;50.426;15.352;2023-02-28T05:41:13;9.25;;;5.30;;
77798;SDS011;66989;50.426;15.352;2023-02-28T05:43:40;11.40;;;4.55;;
77798;SDS011;66989;50.426;15.352;2023-02-28T05:46:06;10.97;;;5.50;;
77798;SDS011;66989;50.426;15.352;2023-02-28T05:48:33;12.98;;;6.50;;
77798;SDS011;66989;50.426;15.352;2023-02-28T05:51:00;9.45;;;4.50;;
77798;SDS011;66989;50.426;15.352;2023-02-28T05:53:27;8.23;;;4.25;;
77798;SDS011;66989;50.426;15.352;2023-02-28T05:55:52;6.50;;;3.33;;
77798;SDS011;66989;50.426;15.352;2023-02-28T05:58:18;6.05;;;4.28;;
77798;SDS011;66989;50.426;15.352;2023-02-28T06:00:43;8.38;;;3.55;;
77798;SDS011;66989;50.426;15.352;2023-02-28T06:03:09;7.20;;;3.22;;
77798;SDS011;66989;50.426;15.352;2023-02-28T06:05:34;9.75;;;4.70;;
77798;SDS011;66989;50.426;15.352;2023-02-28T06:08:00;7.07;;;3.13;;
77798;SDS011;66989;50.426;15.352;2023-02-28T06:10:25;5.23;;;3.60;;
77798;SDS011;66989;50.426;15.352;2023-02-28T06:12:53;8.50;;;4.38;;
77798;SDS011;66989;50.426;15.352;2023-02-28T06:15:20;6.30;;;4.32;;
77798;SDS011;66989;50.426;15.352;2023-02-28T06:17:45;5.60;;;3.15;;
77798;SDS011;66989;50.426;15.352;2023-02-28T06:20:12;7.63;;;3.67;;
77798;SDS011;66989;50.426;15.352;2023-02-28T06:22:40;7.25;;;4.63;;
77798;SDS011;66989;50.426;15.352;2023-02-28T06:25:06;6.30;;;3.47;;
77798;SDS011;66989;50.426;15.352;2023-02-28T06:27:33;8.30;;;4.30;;
77798;SDS011;66989;50.426;15.352;2023-02-28T06:29:58;7.45;;;4.20;;
77798;SDS011;66989;50.426;15.352;2023-02-28T06:32:24;8.00;;;5.10;;
77798;SDS011;66989;50.426;15.352;2023-02-28T06:34:49;5.85;;;3.28;;
77798;SDS011;66989;50.426;15.352;2023-02-28T06:37:15;7.72;;;3.53;;
77798;SDS011;66989;50.426;15.352;2023-02-28T06:39:41;8.63;;;3.65;;
77798;SDS011;66989;50.426;15.352;2023-02-28T06:42:07;7.70;;;3.77;;
77798;SDS011;66989;50.426;15.352;2023-02-28T06:44:32;7.90;;;4.93;;
77798;SDS011;66989;50.426;15.352;2023-02-28T06:46:59;10.55;;;5.13;;
77798;SDS011;66989;50.426;15.352;2023-02-28T06:49:30;7.70;;;4.75;;
77798;SDS011;66989;50.426;15.352;2023-02-28T06:51:56;9.40;;;4.07;;
77798;SDS011;66989;50.426;15.352;2023-02-28T06:54:22;7.68;;;3.40;;
77798;SDS011;66989;50.426;15.352;2023-02-28T06:56:48;8.77;;;3.08;;
77798;SDS011;66989;50.426;15.352;2023-02-28T06:59:14;7.53;;;3.75;;
77798;SDS011;66989;50.426;15.352;2023-02-28T07:01:39;9.40;;;4.70;;
77798;SDS011;66989;50.426;15.352;2023-02-28T07:04:05;6.32;;;3.60;;
77798;SDS011;66989;50.426;15.352;2023-02-28T07:06:31;6.82;;;4.60;;
77798;SDS011;66989;50.426;15.352;2023-02-28T07:08:57;8.95;;;3.50;;
77798;SDS011;66989;50.426;15.352;2023-02-28T07:11:23;6.43;;;2.88;;
77798;SDS011;66989;50.426;15.352;2023-02-28T07:13:51;6.43;;;3.63;;
77798;SDS011;66989;50.426;15.352;2023-02-28T07:16:18;6.30;;;3.70;;
77798;SDS011;66989;50.426;15.352;2023-02-28T07:18:43;7.97;;;4.22;;
77798;SDS011;66989;50.426;15.352;2023-02-28T07:21:09;6.95;;;3.97;;
77798;SDS011;66989;50.426;15.352;2023-02-28T07:23:35;8.80;;;3.60;;
77798;SDS011;66989;50.426;15.352;2023-02-28T07:26:06;6.57;;;3.63;;
77798;SDS011;66989;50.426;15.352;2023-02-28T07:28:32;6.72;;;3.85;;
77798;SDS011;66989;50.426;15.352;2023-02-28T07:31:03;6.18;;;3.40;;
77798;SDS011;66989;50.426;15.352;2023-02-28T07:33:32;9.45;;;3.63;;
77798;SDS011;66989;50.426;15.352;2023-02-28T07:36:03;6.65;;;3.40;;
77798;SDS011;66989;50.426;15.352;2023-02-28T07:38:30;5.20;;;3.72;;
77798;SDS011;66989;50.426;15.352;2023-02-28T07:40:56;5.40;;;3.38;;
77798;SDS011;66989;50.426;15.352;2023-02-28T07:43:21;6.68;;;2.83;;
77798;SDS011;66989;50.426;15.352;2023-02-28T07:45:46;5.63;;;3.10;;
77798;SDS011;66989;50.426;15.352;2023-02-28T07:48:12;7.60;;;3.57;;
77798;SDS011;66989;50.426;15.352;2023-02-28T07:50:37;5.30;;;3.47;;
77798;SDS011;66989;50.426;15.352;2023-02-28T07:53:03;5.82;;;3.20;;
77798;SDS011;66989;50.426;15.352;2023-02-28T07:55:30;6.28;;;3.63;;
77798;SDS011;66989;50.426;15.352;2023-02-28T07:57:56;4.68;;;3.13;;
77798;SDS011;66989;50.426;15.352;2023-02-28T08:00:22;5.03;;;3.30;;
77798;SDS011;66989;50.426;15.352;2023-02-28T08:02:48;5.93;;;3.50;;
77798;SDS011;66989;50.426;15.352;2023-02-28T08:05:13;5.03;;;3.00;;
77798;SDS011;66989;50.426;15.352;2023-02-28T08:07:39;6.28;;;4.22;;
77798;SDS011;66989;50.426;15.352;2023-02-28T08:10:04;5.07;;;3.23;;
77798;SDS011;66989;50.426;15.352;2023-02-28T08:12:35;5.85;;;3.70;;
77798;SDS011;66989;50.426;15.352;2023-02-28T08:15:01;5.25;;;3.15;;
77798;SDS011;66989;50.426;15.352;2023-02-28T08:17:29;5.82;;;3.38;;
77798;SDS011;66989;50.426;15.352;2023-02-28T08:19:55;7.82;;;4.40;;
77798;SDS011;66989;50.426;15.352;2023-02-28T08:22:20;5.43;;;2.80;;
77798;SDS011;66989;50.426;15.352;2023-02-28T08:24:51;4.95;;;3.63;;
77798;SDS011;66989;50.426;15.352;2023-02-28T08:27:25;6.03;;;3.60;;
77798;SDS011;66989;50.426;15.352;2023-02-28T08:29:50;5.88;;;3.70;;
77798;SDS011;66989;50.426;15.352;2023-02-28T08:32:15;7.90;;;3.57;;
77798;SDS011;66989;50.426;15.352;2023-02-28T08:34:41;8.00;;;3.97;;
77798;SDS011;66989;50.426;15.352;2023-02-28T08:37:06;8.15;;;3.97;;
77798;SDS011;66989;50.426;15.352;2023-02-28T08:39:35;5.72;;;4.07;;
77798;SDS011;66989;50.426;15.352;2023-02-28T08:42:02;6.88;;;4.07;;
77798;SDS011;66989;50.426;15.352;2023-02-28T08:44:28;6.30;;;3.55;;
77798;SDS011;66989;50.426;15.352;2023-02-28T08:46:54;7.30;;;3.88;;
77798;SDS011;66989;50.426;15.352;2023-02-28T08:49:19;5.70;;;3.42;;
77798;SDS011;66989;50.426;15.352;2023-02-28T08:51:44;7.10;;;3.60;;
77798;SDS011;66989;50.426;15.352;2023-02-28T08:54:10;5.75;;;3.58;;
77798;SDS011;66989;50.426;15.352;2023-02-28T08:56:41;6.65;;;3.28;;
77798;SDS011;66989;50.426;15.352;2023-02-28T08:59:08;5.88;;;3.30;;
77798;SDS011;66989;50.426;15.352;2023-02-28T09:01:34;6.57;;;2.95;;
77798;SDS011;66989;50.426;15.352;2023-02-28T09:04:01;6.45;;;3.03;;
77798;SDS011;66989;50.426;15.352;2023-02-28T09:06:27;5.47;;;2.90;;
77798;SDS011;66989;50.426;15.352;2023-02-28T09:08:55;5.45;;;3.33;;
77798;SDS011;66989;50.426;15.352;2023-02-28T09:11:23;5.43;;;3.15;;
77798;SDS011;66989;50.426;15.352;2023-02-28T09:13:49;5.15;;;3.38;;
77798;SDS011;66989;50.426;15.352;2023-02-28T09:16:15;9.05;;;4.13;;
77798;SDS011;66989;50.426;15.352;2023-02-28T09:18:42;8.10;;;3.80;;
77798;SDS011;66989;50.426;15.352;2023-02-28T09:21:09;4.93;;;3.15;;
77798;SDS011;66989;50.426;15.352;2023-02-28T09:23:39;6.95;;;3.28;;
77798;SDS011;66989;50.426;15.352;2023-02-28T09:26:05;5.78;;;3.05;;
77798;SDS011;66989;50.426;15.352;2023-02-28T09:28:31;6.10;;;3.42;;
77798;SDS011;66989;50.426;15.352;2023-02-28T09:30:57;7.32;;;4.03;;
77798;SDS011;66989;50.426;15.352;2023-02-28T09:33:24;6.35;;;3.63;;
77798;SDS011;66989;50.426;15.352;2023-02-28T09:35:50;4.97;;;3.15;;
77798;SDS011;66989;50.426;15.352;2023-02-28T09:38:22;7.15;;;4.38;;
77798;SDS011;66989;50.426;15.352;2023-02-28T09:40:51;6.18;;;3.70;;
77798;SDS011;66989;50.426;15.352;2023-02-28T09:43:20;6.35;;;3.50;;
77798;SDS011;66989;50.426;15.352;2023-02-28T09:45:49;6.13;;;3.53;;
77798;SDS011;66989;50.426;15.352;2023-02-28T09:48:19;7.03;;;3.50;;
77798;SDS011;66989;50.426;15.352;2023-02-28T09:50:50;5.13;;;3.70;;
77798;SDS011;66989;50.426;15.352;2023-02-28T09:53:33;6.80;;;3.53;;
77798;SDS011;66989;50.426;15.352;2023-02-28T09:56:10;5.43;;;3.35;;
77798;SDS011;66989;50.426;15.352;2023-02-28T09:58:49;7.32;;;3.72;;
77798;SDS011;66989;50.426;15.352;2023-02-28T10:06:58;5.70;;;3.97;;
77798;SDS011;66989;50.426;15.352;2023-02-28T10:09:26;9.57;;;5.95;;
77798;SDS011;66989;50.426;15.352;2023-02-28T10:11:57;6.65;;;3.95;;
77798;SDS011;66989;50.426;15.352;2023-02-28T10:14:28;5.82;;;4.22;;
77798;SDS011;66989;50.426;15.352;2023-02-28T10:16:58;5.85;;;3.85;;
77798;SDS011;66989;50.426;15.352;2023-02-28T10:19:32;8.45;;;3.95;;
77798;SDS011;66989;50.426;15.352;2023-02-28T10:22:11;7.35;;;4.10;;
77798;SDS011;66989;50.426;15.352;2023-02-28T10:24:42;5.38;;;4.03;;
77798;SDS011;66989;50.426;15.352;2023-02-28T10:29:45;6.10;;;4.30;;
77798;SDS011;66989;50.426;15.352;2023-02-28T10:32:22;6.72;;;4.70;;
77798;SDS011;66989;50.426;15.352;2023-02-28T10:37:24;7.30;;;4.22;;
77798;SDS011;66989;50.426;15.352;2023-02-28T10:39:50;6.43;;;5.18;;
77798;SDS011;66989;50.426;15.352;2023-02-28T10:44:44;7.00;;;4.80;;
77798;SDS011;66989;50.426;15.352;2023-02-28T10:47:14;7.40;;;6.15;;
77798;SDS011;66989;50.426;15.352;2023-02-28T10:49:46;7.10;;;4.78;;
77798;SDS011;66989;50.426;15.352;2023-02-28T10:52:13;7.43;;;4.55;;
77798;SDS011;66989;50.426;15.352;2023-02-28T10:57:55;9.07;;;4.50;;
77798;SDS011;66989;50.426;15.352;2023-02-28T11:00:24;7.03;;;3.73;;
77798;SDS011;66989;50.426;15.352;2023-02-28T11:02:57;7.95;;;5.32;;
77798;SDS011;66989;50.426;15.352;2023-02-28T11:05:30;6.07;;;4.13;;
77798;SDS011;66989;50.426;15.352;2023-02-28T11:08:06;9.10;;;6.03;;
77798;SDS011;66989;50.426;15.352;2023-02-28T11:10:32;7.40;;;5.63;;
77798;SDS011;66989;50.426;15.352;2023-02-28T11:13:00;7.88;;;4.15;;
77798;SDS011;66989;50.426;15.352;2023-02-28T11:15:27;5.55;;;3.65;;
77798;SDS011;66989;50.426;15.352;2023-02-28T11:20:47;5.97;;;3.78;;
77798;SDS011;66989;50.426;15.352;2023-02-28T11:23:15;5.65;;;4.03;;
77798;SDS011;66989;50.426;15.352;2023-02-28T11:25:47;5.97;;;3.70;;
77798;SDS011;66989;50.426;15.352;2023-02-28T11:28:29;6.22;;;3.63;;
77798;SDS011;66989;50.426;15.352;2023-02-28T11:38:42;7.63;;;4.63;;
77798;SDS011;66989;50.426;15.352;2023-02-28T11:41:12;5.57;;;4.22;;
77798;SDS011;66989;50.426;15.352;2023-02-28T11:46:58;5.90;;;4.10;;
77798;SDS011;66989;50.426;15.352;2023-02-28T11:57:40;7.85;;;4.38;;
77798;SDS011;66989;50.426;15.352;2023-02-28T12:00:40;6.85;;;4.75;;
77798;SDS011;66989;50.426;15.352;2023-02-28T12:03:16;6.07;;;4.00;;
77798;SDS011;66989;50.426;15.352;2023-02-28T12:05:46;5.82;;;4.05;;
77798;SDS011;66989;50.426;15.352;2023-02-28T12:17:13;7.40;;;5.50;;
77798;SDS011;66989;50.426;15.352;2023-02-28T12:25:50;7.55;;;4.80;;
77798;SDS011;66989;50.426;15.352;2023-02-28T12:28:25;5.93;;;4.63;;
77798;SDS011;66989;50.426;15.352;2023-02-28T12:31:06;8.27;;;7.47;;
77798;SDS011;66989;50.426;15.352;2023-02-28T12:33:40;8.32;;;5.60;;
77798;SDS011;66989;50.426;15.352;2023-02-28T12:36:13;7.45;;;5.60;;
77798;SDS011;66989;50.426;15.352;2023-02-28T12:44:02;7.28;;;5.75;;
77798;SDS011;66989;50.426;15.352;2023-02-28T12:46:34;7.22;;;5.57;;
77798;SDS011;66989;50.426;15.352;2023-02-28T12:49:06;7.80;;;5.88;;
77798;SDS011;66989;50.426;15.352;2023-02-28T12:51:37;8.85;;;6.15;;
77798;SDS011;66989;50.426;15.352;2023-02-28T12:54:19;10.40;;;6.72;;
77798;SDS011;66989;50.426;15.352;2023-02-28T12:57:13;9.18;;;6.18;;
77798;SDS011;66989;50.426;15.352;2023-02-28T13:14:20;7.32;;;5.75;;
77798;SDS011;66989;50.426;15.352;2023-02-28T13:22:05;8.52;;;5.50;;
77798;SDS011;66989;50.426;15.352;2023-02-28T13:24:49;7.45;;;5.70;;
77798;SDS011;66989;50.426;15.352;2023-02-28T13:27:32;6.80;;;5.15;;
77798;SDS011;66989;50.426;15.352;2023-02-28T13:30:58;7.78;;;5.65;;
77798;SDS011;66989;50.426;15.352;2023-02-28T13:35:44;6.45;;;5.75;;
77798;SDS011;66989;50.426;15.352;2023-02-28T13:40:47;8.48;;;6.28;;
77798;SDS011;66989;50.426;15.352;2023-02-28T13:43:12;10.50;;;6.50;;
77798;SDS011;66989;50.426;15.352;2023-02-28T13:45:44;9.82;;;6.00;;
77798;SDS011;66989;50.426;15.352;2023-02-28T13:48:35;7.90;;;6.30;;
77798;SDS011;66989;50.426;15.352;2023-02-28T13:51:16;8.75;;;6.20;;
77798;SDS011;66989;50.426;15.352;2023-02-28T14:05:44;9.10;;;6.47;;
77798;SDS011;66989;50.426;15.352;2023-02-28T14:08:17;10.05;;;6.97;;
77798;SDS011;66989;50.426;15.352;2023-02-28T14:10:48;9.63;;;7.03;;
77798;SDS011;66989;50.426;15.352;2023-02-28T14:16:01;9.40;;;6.03;;
77798;SDS011;66989;50.426;15.352;2023-02-28T14:18:34;10.27;;;7.28;;
77798;SDS011;66989;50.426;15.352;2023-02-28T14:31:39;14.13;;;9.73;;
77798;SDS011;66989;50.426;15.352;2023-02-28T14:34:17;9.25;;;6.82;;
77798;SDS011;66989;50.426;15.352;2023-02-28T14:36:57;20.35;;;12.68;;
77798;SDS011;66989;50.426;15.352;2023-02-28T14:39:27;22.80;;;13.35;;
77798;SDS011;66989;50.426;15.352;2023-02-28T14:41:55;27.35;;;14.18;;
77798;SDS011;66989;50.426;15.352;2023-02-28T14:44:27;20.33;;;12.55;;
77798;SDS011;66989;50.426;15.352;2023-02-28T14:47:02;11.10;;;7.90;;
77798;SDS011;66989;50.426;15.352;2023-02-28T14:49:32;8.48;;;5.72;;
77798;SDS011;66989;50.426;15.352;2023-02-28T14:52:23;11.60;;;6.75;;
77798;SDS011;66989;50.426;15.352;2023-02-28T14:54:53;10.68;;;6.93;;
77798;SDS011;66989;50.426;15.352;2023-02-28T14:58:02;11.57;;;7.75;;
77798;SDS011;66989;50.426;15.352;2023-02-28T15:03:18;8.93;;;6.50;;
77798;SDS011;66989;50.426;15.352;2023-02-28T15:05:55;9.80;;;6.93;;
77798;SDS011;66989;50.426;15.352;2023-02-28T15:08:23;8.05;;;5.75;;
77798;SDS011;66989;50.426;15.352;2023-02-28T15:10:51;9.65;;;5.85;;
77798;SDS011;66989;50.426;15.352;2023-02-28T15:16:13;13.48;;;8.80;;
77798;SDS011;66989;50.426;15.352;2023-02-28T15:18:57;16.50;;;10.52;;
77798;SDS011;66989;50.426;15.352;2023-02-28T15:21:26;11.02;;;7.13;;
77798;SDS011;66989;50.426;15.352;2023-02-28T15:23:54;12.27;;;10.13;;
77798;SDS011;66989;50.426;15.352;2023-02-28T15:26:30;11.85;;;8.07;;
77798;SDS011;66989;50.426;15.352;2023-02-28T15:28:59;12.50;;;7.88;;
77798;SDS011;66989;50.426;15.352;2023-02-28T15:31:32;10.18;;;6.82;;
77798;SDS011;66989;50.426;15.352;2023-02-28T15:34:04;16.42;;;7.10;;
77798;SDS011;66989;50.426;15.352;2023-02-28T15:36:34;14.73;;;8.45;;
77798;SDS011;66989;50.426;15.352;2023-02-28T15:39:02;19.65;;;11.27;;
77798;SDS011;66989;50.426;15.352;2023-02-28T15:41:43;10.57;;;7.15;;
77798;SDS011;66989;50.426;15.352;2023-02-28T15:44:27;14.80;;;9.70;;
77798;SDS011;66989;50.426;15.352;2023-02-28T15:47:02;11.63;;;7.03;;
77798;SDS011;66989;50.426;15.352;2023-02-28T15:49:32;10.30;;;6.95;;
77798;SDS011;66989;50.426;15.352;2023-02-28T15:52:05;13.63;;;7.07;;
77798;SDS011;66989;50.426;15.352;2023-02-28T15:54:34;10.80;;;6.93;;
77798;SDS011;66989;50.426;15.352;2023-02-28T15:57:02;11.90;;;7.03;;
77798;SDS011;66989;50.426;15.352;2023-02-28T15:59:33;12.38;;;7.18;;
77798;SDS011;66989;50.426;15.352;2023-02-28T16:02:17;16.13;;;7.22;;
77798;SDS011;66989;50.426;15.352;2023-02-28T16:07:21;12.30;;;7.30;;
77798;SDS011;66989;50.426;15.352;2023-02-28T16:09:46;12.10;;;7.03;;
77798;SDS011;66989;50.426;15.352;2023-02-28T16:12:13;12.38;;;6.93;;
77798;SDS011;66989;50.426;15.352;2023-02-28T16:14:39;11.00;;;6.57;;
77798;SDS011;66989;50.426;15.352;2023-02-28T16:17:07;13.90;;;7.47;;
77798;SDS011;66989;50.426;15.352;2023-02-28T16:19:41;12.95;;;8.00;;
77798;SDS011;66989;50.426;15.352;2023-02-28T16:22:07;16.00;;;7.68;;
77798;SDS011;66989;50.426;15.352;2023-02-28T16:24:34;13.93;;;7.18;;
77798;SDS011;66989;50.426;15.352;2023-02-28T16:26:59;15.77;;;9.17;;
77798;SDS011;66989;50.426;15.352;2023-02-28T16:29:33;11.57;;;6.60;;
77798;SDS011;66989;50.426;15.352;2023-02-28T16:32:00;13.98;;;6.85;;
77798;SDS011;66989;50.426;15.352;2023-02-28T16:34:29;12.77;;;6.68;;
77798;SDS011;66989;50.426;15.352;2023-02-28T16:36:54;17.70;;;6.53;;
77798;SDS011;66989;50.426;15.352;2023-02-28T16:39:19;13.47;;;7.60;;
77798;SDS011;66989;50.426;15.352;2023-02-28T16:41:45;14.98;;;7.70;;
77798;SDS011;66989;50.426;15.352;2023-02-28T16:44:18;14.48;;;8.05;;
77798;SDS011;66989;50.426;15.352;2023-02-28T16:46:51;15.10;;;8.55;;
77798;SDS011;66989;50.426;15.352;2023-02-28T16:49:17;12.00;;;6.55;;
77798;SDS011;66989;50.426;15.352;2023-02-28T16:51:42;15.77;;;7.20;;
77798;SDS011;66989;50.426;15.352;2023-02-28T16:54:08;13.17;;;6.47;;
77798;SDS011;66989;50.426;15.352;2023-02-28T16:56:33;13.82;;;7.65;;
77798;SDS011;66989;50.426;15.352;2023-02-28T16:58:59;13.32;;;8.88;;
77798;SDS011;66989;50.426;15.352;2023-02-28T17:03:52;12.43;;;6.53;;
77798;SDS011;66989;50.426;15.352;2023-02-28T17:06:25;15.18;;;7.80;;
77798;SDS011;66989;50.426;15.352;2023-02-28T17:08:53;15.38;;;7.82;;
77798;SDS011;66989;50.426;15.352;2023-02-28T17:11:19;16.02;;;8.40;;
77798;SDS011;66989;50.426;15.352;2023-02-28T17:13:44;16.42;;;8.65;;